Cincinnati Municipal Airport Lunken Field
KLUK : rendu visible

Aérodrome :











RETROUVEZ-NOUS SUR...

 
LOGIN :

S'inscrire | Disclaimer

   EN    FR    IT 

 









Légende :    VFR   VFR Marginal   IFR   IFR Intensif   IFR Très Intensif
Visi : 
Plafond : 
>= 8 km
>= 3000ft
5 à 8 km
1000 à 3000 ft
1500m à 5 km
500 à 1000 ft
800 à 1500m
200 à 500 ft
< 800m
< 200 ft
Symboles :   Orages  Brouillard  Fortes neiges  Fortes précipitations  Vent > 20 kt






- Altitude de l'aérodrome : 483 ft
- Code IATA : LUK


KLUK - Cincinnati Municipal Lunken Field

DERNIER METAR :
  • 180953Z AUTO 05003KT 10SM R21L/3500VP6000FT CLR 02/01 A3009 RMK AO2 SLP190 T00170011

METARs EXPIRÉS :
  • 180853Z AUTO 00000KT 9SM CLR 02/02 A3007 RMK AO2 SLP185 T00220017 53006
  • 180753Z AUTO 06003KT 10SM CLR 03/02 A3007 RMK AO2 SLP184 T00330022

TAF KLUK
Valide du 18 à 06h jusqu'au 19 à 06h UTC


180521Z 1806/1906 00000KT P6SM SKC
TEMPO 1808/1812 3SM BR
FM181400 08006KT P6SM SCT250
FM181800 13004KT P6SM SCT250
FM182300 00000KT P6SM SKC



MET'MAP, la Météo Aéronautique d'un coup d'oeil ! - Copyright ORBIFLY Décembre 2007 - Disclaimer

ORBIFLY MET'MAP TEAM :

Programmation & Développement : Alexandra Zaïnal
Conception & Développement : Baudouin d'Aumeries
Co-Programmation & Développement : Marc-Olivier Méhu
Soutien technique & logistique : Manuel Goepfert

Contact : metmap@orbifly.com




SOURCES & CREDITS :

   NOAA       Earth
Advisory